sensor_id;sensor_type;location;lat;lon;timestamp;P1;durP1;ratioP1;P2;durP2;ratioP2
24325;SDS011;12448;45.532;5.290;2023-03-01T00:01:25;41.57;;;23.43;;
24325;SDS011;12448;45.532;5.290;2023-03-01T00:03:52;30.97;;;18.27;;
24325;SDS011;12448;45.532;5.290;2023-03-01T00:06:20;26.70;;;17.07;;
24325;SDS011;12448;45.532;5.290;2023-03-01T00:08:46;28.57;;;18.40;;
24325;SDS011;12448;45.532;5.290;2023-03-01T00:16:13;29.73;;;18.70;;
24325;SDS011;12448;45.532;5.290;2023-03-01T00:18:43;34.67;;;19.67;;
24325;SDS011;12448;45.532;5.290;2023-03-01T00:21:09;32.23;;;19.13;;
24325;SDS011;12448;45.532;5.290;2023-03-01T00:23:35;30.07;;;18.73;;
24325;SDS011;12448;45.532;5.290;2023-03-01T00:26:02;34.70;;;19.37;;
24325;SDS011;12448;45.532;5.290;2023-03-01T00:28:31;32.23;;;19.10;;
24325;SDS011;12448;45.532;5.290;2023-03-01T00:31:02;34.17;;;18.97;;
24325;SDS011;12448;45.532;5.290;2023-03-01T00:33:29;30.95;;;18.95;;
24325;SDS011;12448;45.532;5.290;2023-03-01T00:35:57;36.73;;;20.47;;
24325;SDS011;12448;45.532;5.290;2023-03-01T00:38:23;31.97;;;19.17;;
24325;SDS011;12448;45.532;5.290;2023-03-01T00:40:49;32.87;;;18.60;;
24325;SDS011;12448;45.532;5.290;2023-03-01T00:43:14;33.93;;;19.13;;
24325;SDS011;12448;45.532;5.290;2023-03-01T00:45:40;32.30;;;19.80;;
24325;SDS011;12448;45.532;5.290;2023-03-01T00:48:06;41.07;;;23.50;;
24325;SDS011;12448;45.532;5.290;2023-03-01T00:50:31;40.97;;;22.50;;
24325;SDS011;12448;45.532;5.290;2023-03-01T00:52:57;44.03;;;23.33;;
24325;SDS011;12448;45.532;5.290;2023-03-01T00:55:23;47.07;;;23.43;;
24325;SDS011;12448;45.532;5.290;2023-03-01T00:57:50;44.83;;;22.20;;
24325;SDS011;12448;45.532;5.290;2023-03-01T01:00:16;28.07;;;18.73;;
24325;SDS011;12448;45.532;5.290;2023-03-01T01:02:42;31.53;;;18.13;;
24325;SDS011;12448;45.532;5.290;2023-03-01T01:05:08;27.97;;;18.90;;
24325;SDS011;12448;45.532;5.290;2023-03-01T01:07:34;31.33;;;18.73;;
24325;SDS011;12448;45.532;5.290;2023-03-01T01:09:59;31.67;;;18.50;;
24325;SDS011;12448;45.532;5.290;2023-03-01T01:12:25;29.43;;;18.20;;
24325;SDS011;12448;45.532;5.290;2023-03-01T01:14:51;28.83;;;18.77;;
24325;SDS011;12448;45.532;5.290;2023-03-01T01:17:16;27.03;;;17.33;;
24325;SDS011;12448;45.532;5.290;2023-03-01T01:19:42;30.93;;;18.63;;
24325;SDS011;12448;45.532;5.290;2023-03-01T01:22:08;31.33;;;19.87;;
24325;SDS011;12448;45.532;5.290;2023-03-01T01:24:34;35.70;;;20.27;;
24325;SDS011;12448;45.532;5.290;2023-03-01T01:27:00;79.60;;;28.47;;
24325;SDS011;12448;45.532;5.290;2023-03-01T01:29:26;198.80;;;50.67;;
24325;SDS011;12448;45.532;5.290;2023-03-01T01:31:51;31.47;;;19.30;;
24325;SDS011;12448;45.532;5.290;2023-03-01T01:34:18;64.27;;;29.13;;
24325;SDS011;12448;45.532;5.290;2023-03-01T01:36:49;47.87;;;22.93;;
24325;SDS011;12448;45.532;5.290;2023-03-01T01:39:21;139.83;;;45.57;;
24325;SDS011;12448;45.532;5.290;2023-03-01T01:41:47;32.83;;;19.07;;
24325;SDS011;12448;45.532;5.290;2023-03-01T01:44:17;28.80;;;17.83;;
24325;SDS011;12448;45.532;5.290;2023-03-01T01:49:24;31.50;;;18.40;;
24325;SDS011;12448;45.532;5.290;2023-03-01T01:52:04;31.17;;;18.90;;
24325;SDS011;12448;45.532;5.290;2023-03-01T01:57:09;29.07;;;18.37;;
24325;SDS011;12448;45.532;5.290;2023-03-01T01:59:38;35.30;;;19.17;;
24325;SDS011;12448;45.532;5.290;2023-03-01T02:02:07;42.70;;;23.47;;
24325;SDS011;12448;45.532;5.290;2023-03-01T02:04:33;43.97;;;23.10;;
24325;SDS011;12448;45.532;5.290;2023-03-01T02:07:01;30.53;;;19.43;;
24325;SDS011;12448;45.532;5.290;2023-03-01T02:09:32;29.70;;;17.83;;
24325;SDS011;12448;45.532;5.290;2023-03-01T02:11:59;53.20;;;27.40;;
24325;SDS011;12448;45.532;5.290;2023-03-01T02:14:26;45.43;;;23.50;;
24325;SDS011;12448;45.532;5.290;2023-03-01T02:16:51;34.73;;;19.97;;
24325;SDS011;12448;45.532;5.290;2023-03-01T02:19:20;30.80;;;18.83;;
24325;SDS011;12448;45.532;5.290;2023-03-01T02:22:06;29.57;;;18.03;;
24325;SDS011;12448;45.532;5.290;2023-03-01T02:24:55;29.63;;;18.37;;
24325;SDS011;12448;45.532;5.290;2023-03-01T02:30:19;35.67;;;20.87;;
24325;SDS011;12448;45.532;5.290;2023-03-01T02:32:46;34.87;;;20.10;;
24325;SDS011;12448;45.532;5.290;2023-03-01T02:35:14;44.23;;;23.43;;
24325;SDS011;12448;45.532;5.290;2023-03-01T02:37:42;31.00;;;19.43;;
24325;SDS011;12448;45.532;5.290;2023-03-01T02:40:10;29.00;;;18.73;;
24325;SDS011;12448;45.532;5.290;2023-03-01T02:42:47;34.57;;;19.23;;
24325;SDS011;12448;45.532;5.290;2023-03-01T02:45:19;32.03;;;20.07;;
24325;SDS011;12448;45.532;5.290;2023-03-01T02:47:45;31.07;;;19.37;;
24325;SDS011;12448;45.532;5.290;2023-03-01T02:53:13;34.63;;;20.23;;
24325;SDS011;12448;45.532;5.290;2023-03-01T02:55:44;40.77;;;21.87;;
24325;SDS011;12448;45.532;5.290;2023-03-01T02:58:10;32.63;;;19.93;;
24325;SDS011;12448;45.532;5.290;2023-03-01T03:00:37;36.80;;;20.40;;
24325;SDS011;12448;45.532;5.290;2023-03-01T03:03:15;31.30;;;19.53;;
24325;SDS011;12448;45.532;5.290;2023-03-01T03:05:42;35.60;;;20.20;;
24325;SDS011;12448;45.532;5.290;2023-03-01T03:08:08;32.77;;;19.47;;
24325;SDS011;12448;45.532;5.290;2023-03-01T03:10:38;37.77;;;20.27;;
24325;SDS011;12448;45.532;5.290;2023-03-01T03:13:06;32.20;;;19.73;;
24325;SDS011;12448;45.532;5.290;2023-03-01T03:15:34;29.37;;;19.53;;
24325;SDS011;12448;45.532;5.290;2023-03-01T03:18:06;33.90;;;19.37;;
24325;SDS011;12448;45.532;5.290;2023-03-01T03:20:34;31.30;;;19.33;;
24325;SDS011;12448;45.532;5.290;2023-03-01T03:22:59;33.00;;;19.83;;
24325;SDS011;12448;45.532;5.290;2023-03-01T03:25:26;32.77;;;20.10;;
24325;SDS011;12448;45.532;5.290;2023-03-01T03:27:53;34.77;;;20.93;;
24325;SDS011;12448;45.532;5.290;2023-03-01T03:30:22;34.80;;;20.43;;
24325;SDS011;12448;45.532;5.290;2023-03-01T03:32:49;31.10;;;19.63;;
24325;SDS011;12448;45.532;5.290;2023-03-01T03:35:17;35.97;;;20.40;;
24325;SDS011;12448;45.532;5.290;2023-03-01T03:37:45;31.87;;;19.73;;
24325;SDS011;12448;45.532;5.290;2023-03-01T03:40:32;32.30;;;20.33;;
24325;SDS011;12448;45.532;5.290;2023-03-01T03:43:04;32.22;;;19.35;;
24325;SDS011;12448;45.532;5.290;2023-03-01T03:45:31;35.80;;;21.63;;
24325;SDS011;12448;45.532;5.290;2023-03-01T03:47:58;34.17;;;20.30;;
24325;SDS011;12448;45.532;5.290;2023-03-01T03:50:24;33.40;;;19.57;;
24325;SDS011;12448;45.532;5.290;2023-03-01T03:52:50;37.50;;;20.03;;
24325;SDS011;12448;45.532;5.290;2023-03-01T03:55:16;30.40;;;19.27;;
24325;SDS011;12448;45.532;5.290;2023-03-01T03:57:44;37.10;;;20.87;;
24325;SDS011;12448;45.532;5.290;2023-03-01T04:00:16;33.70;;;20.33;;
24325;SDS011;12448;45.532;5.290;2023-03-01T04:02:43;32.53;;;19.97;;
24325;SDS011;12448;45.532;5.290;2023-03-01T04:05:10;32.23;;;19.50;;
24325;SDS011;12448;45.532;5.290;2023-03-01T04:07:37;31.07;;;20.97;;
24325;SDS011;12448;45.532;5.290;2023-03-01T04:10:04;36.17;;;21.03;;
24325;SDS011;12448;45.532;5.290;2023-03-01T04:12:32;37.80;;;21.83;;
24325;SDS011;12448;45.532;5.290;2023-03-01T04:15:02;31.23;;;20.07;;
24325;SDS011;12448;45.532;5.290;2023-03-01T04:17:41;33.40;;;17.20;;
24325;SDS011;12448;45.532;5.290;2023-03-01T04:20:09;33.57;;;19.73;;
24325;SDS011;12448;45.532;5.290;2023-03-01T04:22:37;36.57;;;22.00;;
24325;SDS011;12448;45.532;5.290;2023-03-01T04:25:04;35.03;;;20.67;;
24325;SDS011;12448;45.532;5.290;2023-03-01T04:27:32;30.40;;;19.13;;
24325;SDS011;12448;45.532;5.290;2023-03-01T04:29:58;37.07;;;20.47;;
24325;SDS011;12448;45.532;5.290;2023-03-01T04:32:24;32.53;;;20.83;;
24325;SDS011;12448;45.532;5.290;2023-03-01T04:34:49;33.43;;;20.57;;
24325;SDS011;12448;45.532;5.290;2023-03-01T04:37:15;34.53;;;21.77;;
24325;SDS011;12448;45.532;5.290;2023-03-01T04:39:41;33.50;;;19.93;;
24325;SDS011;12448;45.532;5.290;2023-03-01T04:42:19;36.60;;;21.97;;
24325;SDS011;12448;45.532;5.290;2023-03-01T04:44:45;33.77;;;20.07;;
24325;SDS011;12448;45.532;5.290;2023-03-01T04:47:11;36.97;;;22.37;;
24325;SDS011;12448;45.532;5.290;2023-03-01T04:49:37;38.43;;;22.17;;
24325;SDS011;12448;45.532;5.290;2023-03-01T04:52:03;37.40;;;22.17;;
24325;SDS011;12448;45.532;5.290;2023-03-01T04:54:30;92.43;;;45.13;;
24325;SDS011;12448;45.532;5.290;2023-03-01T04:56:56;38.50;;;22.20;;
24325;SDS011;12448;45.532;5.290;2023-03-01T04:59:22;84.30;;;44.13;;
24325;SDS011;12448;45.532;5.290;2023-03-01T05:01:52;37.40;;;22.90;;
24325;SDS011;12448;45.532;5.290;2023-03-01T05:06:48;32.87;;;19.60;;
24325;SDS011;12448;45.532;5.290;2023-03-01T05:09:14;37.63;;;22.50;;
24325;SDS011;12448;45.532;5.290;2023-03-01T05:11:39;34.23;;;21.77;;
24325;SDS011;12448;45.532;5.290;2023-03-01T05:14:05;67.20;;;34.63;;
24325;SDS011;12448;45.532;5.290;2023-03-01T05:16:32;39.60;;;23.30;;
24325;SDS011;12448;45.532;5.290;2023-03-01T05:18:58;36.33;;;20.97;;
24325;SDS011;12448;45.532;5.290;2023-03-01T05:21:24;36.97;;;22.23;;
24325;SDS011;12448;45.532;5.290;2023-03-01T05:23:50;38.87;;;23.60;;
24325;SDS011;12448;45.532;5.290;2023-03-01T05:26:17;37.60;;;22.07;;
24325;SDS011;12448;45.532;5.290;2023-03-01T05:28:46;37.67;;;22.57;;
24325;SDS011;12448;45.532;5.290;2023-03-01T05:31:12;38.30;;;21.77;;
24325;SDS011;12448;45.532;5.290;2023-03-01T05:33:39;102.60;;;42.03;;
24325;SDS011;12448;45.532;5.290;2023-03-01T05:36:06;41.83;;;25.20;;
24325;SDS011;12448;45.532;5.290;2023-03-01T05:38:34;101.50;;;46.73;;
24325;SDS011;12448;45.532;5.290;2023-03-01T05:41:00;37.83;;;23.03;;
24325;SDS011;12448;45.532;5.290;2023-03-01T05:43:26;47.90;;;27.10;;
24325;SDS011;12448;45.532;5.290;2023-03-01T05:45:57;42.53;;;24.80;;
24325;SDS011;12448;45.532;5.290;2023-03-01T05:48:22;43.47;;;28.07;;
24325;SDS011;12448;45.532;5.290;2023-03-01T05:50:48;45.30;;;27.73;;
24325;SDS011;12448;45.532;5.290;2023-03-01T05:53:18;45.93;;;25.07;;
24325;SDS011;12448;45.532;5.290;2023-03-01T05:55:46;46.23;;;26.83;;
24325;SDS011;12448;45.532;5.290;2023-03-01T05:58:18;38.13;;;22.43;;
24325;SDS011;12448;45.532;5.290;2023-03-01T06:00:45;35.45;;;20.30;;
24325;SDS011;12448;45.532;5.290;2023-03-01T06:03:13;41.73;;;25.73;;
24325;SDS011;12448;45.532;5.290;2023-03-01T06:05:40;45.60;;;27.80;;
24325;SDS011;12448;45.532;5.290;2023-03-01T06:08:06;46.03;;;26.23;;
24325;SDS011;12448;45.532;5.290;2023-03-01T06:10:32;41.47;;;24.53;;
24325;SDS011;12448;45.532;5.290;2023-03-01T06:12:58;38.53;;;21.90;;
24325;SDS011;12448;45.532;5.290;2023-03-01T06:15:24;43.80;;;23.77;;
24325;SDS011;12448;45.532;5.290;2023-03-01T06:17:50;38.33;;;22.77;;
24325;SDS011;12448;45.532;5.290;2023-03-01T06:20:18;40.17;;;23.40;;
24325;SDS011;12448;45.532;5.290;2023-03-01T06:22:45;40.93;;;24.60;;
24325;SDS011;12448;45.532;5.290;2023-03-01T06:25:13;37.17;;;23.63;;
24325;SDS011;12448;45.532;5.290;2023-03-01T06:27:40;44.20;;;26.37;;
24325;SDS011;12448;45.532;5.290;2023-03-01T06:30:07;109.03;;;50.67;;
24325;SDS011;12448;45.532;5.290;2023-03-01T06:32:35;56.97;;;33.23;;
24325;SDS011;12448;45.532;5.290;2023-03-01T06:35:02;43.00;;;26.80;;
24325;SDS011;12448;45.532;5.290;2023-03-01T06:37:28;43.70;;;25.70;;
24325;SDS011;12448;45.532;5.290;2023-03-01T06:39:54;45.63;;;26.97;;
24325;SDS011;12448;45.532;5.290;2023-03-01T06:42:19;47.53;;;28.13;;
24325;SDS011;12448;45.532;5.290;2023-03-01T06:44:45;35.00;;;19.97;;
24325;SDS011;12448;45.532;5.290;2023-03-01T06:47:11;45.23;;;25.93;;
24325;SDS011;12448;45.532;5.290;2023-03-01T06:49:36;43.43;;;24.50;;
24325;SDS011;12448;45.532;5.290;2023-03-01T06:52:02;47.57;;;27.50;;
24325;SDS011;12448;45.532;5.290;2023-03-01T06:54:28;46.30;;;26.97;;
24325;SDS011;12448;45.532;5.290;2023-03-01T06:56:53;44.10;;;26.13;;
24325;SDS011;12448;45.532;5.290;2023-03-01T06:59:19;41.17;;;25.70;;
24325;SDS011;12448;45.532;5.290;2023-03-01T07:01:45;40.80;;;25.40;;
24325;SDS011;12448;45.532;5.290;2023-03-01T07:04:12;47.80;;;23.50;;
24325;SDS011;12448;45.532;5.290;2023-03-01T07:06:38;43.03;;;25.20;;
24325;SDS011;12448;45.532;5.290;2023-03-01T07:09:04;37.17;;;23.83;;
24325;SDS011;12448;45.532;5.290;2023-03-01T07:11:29;47.60;;;26.27;;
24325;SDS011;12448;45.532;5.290;2023-03-01T07:13:55;43.57;;;24.37;;
24325;SDS011;12448;45.532;5.290;2023-03-01T07:16:21;59.17;;;32.60;;
24325;SDS011;12448;45.532;5.290;2023-03-01T07:18:46;60.53;;;37.17;;
24325;SDS011;12448;45.532;5.290;2023-03-01T07:21:12;43.70;;;26.10;;
24325;SDS011;12448;45.532;5.290;2023-03-01T07:23:40;41.43;;;21.87;;
24325;SDS011;12448;45.532;5.290;2023-03-01T07:26:06;51.60;;;21.87;;
24325;SDS011;12448;45.532;5.290;2023-03-01T07:28:31;44.83;;;25.07;;
24325;SDS011;12448;45.532;5.290;2023-03-01T07:31:04;48.30;;;28.00;;
24325;SDS011;12448;45.532;5.290;2023-03-01T07:33:32;60.40;;;30.70;;
24325;SDS011;12448;45.532;5.290;2023-03-01T07:35:59;57.17;;;32.83;;
24325;SDS011;12448;45.532;5.290;2023-03-01T07:38:28;48.83;;;27.43;;
24325;SDS011;12448;45.532;5.290;2023-03-01T07:40:57;42.37;;;26.00;;
24325;SDS011;12448;45.532;5.290;2023-03-01T07:43:28;54.30;;;29.47;;
24325;SDS011;12448;45.532;5.290;2023-03-01T07:45:54;51.20;;;28.17;;
24325;SDS011;12448;45.532;5.290;2023-03-01T07:48:23;47.90;;;26.87;;
24325;SDS011;12448;45.532;5.290;2023-03-01T07:50:49;42.20;;;27.33;;
24325;SDS011;12448;45.532;5.290;2023-03-01T07:53:14;49.00;;;26.87;;
24325;SDS011;12448;45.532;5.290;2023-03-01T07:55:40;51.57;;;30.63;;
24325;SDS011;12448;45.532;5.290;2023-03-01T07:58:06;47.30;;;26.80;;
24325;SDS011;12448;45.532;5.290;2023-03-01T08:00:31;55.77;;;31.53;;
24325;SDS011;12448;45.532;5.290;2023-03-01T08:03:00;101.27;;;43.90;;
24325;SDS011;12448;45.532;5.290;2023-03-01T08:05:27;85.23;;;38.83;;
24325;SDS011;12448;45.532;5.290;2023-03-01T08:07:53;66.30;;;35.80;;
24325;SDS011;12448;45.532;5.290;2023-03-01T08:10:19;52.90;;;31.33;;
24325;SDS011;12448;45.532;5.290;2023-03-01T08:12:45;65.60;;;37.10;;
24325;SDS011;12448;45.532;5.290;2023-03-01T08:15:10;55.77;;;32.73;;
24325;SDS011;12448;45.532;5.290;2023-03-01T08:17:36;37.93;;;22.37;;
24325;SDS011;12448;45.532;5.290;2023-03-01T08:20:02;49.47;;;27.60;;
24325;SDS011;12448;45.532;5.290;2023-03-01T08:22:31;52.03;;;30.90;;
24325;SDS011;12448;45.532;5.290;2023-03-01T08:24:56;51.07;;;29.83;;
24325;SDS011;12448;45.532;5.290;2023-03-01T08:27:22;50.10;;;30.83;;
24325;SDS011;12448;45.532;5.290;2023-03-01T08:29:47;47.73;;;26.50;;
24325;SDS011;12448;45.532;5.290;2023-03-01T08:32:13;49.60;;;26.50;;
24325;SDS011;12448;45.532;5.290;2023-03-01T08:34:39;50.53;;;30.10;;
24325;SDS011;12448;45.532;5.290;2023-03-01T08:37:04;46.90;;;26.90;;
24325;SDS011;12448;45.532;5.290;2023-03-01T08:39:30;62.20;;;32.40;;
24325;SDS011;12448;45.532;5.290;2023-03-01T08:41:56;53.90;;;30.50;;
24325;SDS011;12448;45.532;5.290;2023-03-01T08:44:22;64.57;;;34.70;;
24325;SDS011;12448;45.532;5.290;2023-03-01T08:46:48;67.73;;;35.10;;
24325;SDS011;12448;45.532;5.290;2023-03-01T08:49:17;79.63;;;40.53;;
24325;SDS011;12448;45.532;5.290;2023-03-01T08:51:44;63.50;;;31.33;;
24325;SDS011;12448;45.532;5.290;2023-03-01T08:54:12;93.07;;;47.77;;
24325;SDS011;12448;45.532;5.290;2023-03-01T08:56:40;60.33;;;33.97;;
24325;SDS011;12448;45.532;5.290;2023-03-01T08:59:06;58.67;;;31.77;;
24325;SDS011;12448;45.532;5.290;2023-03-01T09:01:32;111.17;;;55.90;;
24325;SDS011;12448;45.532;5.290;2023-03-01T09:03:58;72.93;;;38.53;;
24325;SDS011;12448;45.532;5.290;2023-03-01T09:06:24;62.57;;;33.73;;
24325;SDS011;12448;45.532;5.290;2023-03-01T09:08:50;59.47;;;32.43;;
24325;SDS011;12448;45.532;5.290;2023-03-01T09:11:17;69.30;;;36.83;;
24325;SDS011;12448;45.532;5.290;2023-03-01T09:13:45;65.13;;;33.87;;
24325;SDS011;12448;45.532;5.290;2023-03-01T09:16:13;70.40;;;42.03;;
24325;SDS011;12448;45.532;5.290;2023-03-01T09:18:41;82.60;;;40.87;;
24325;SDS011;12448;45.532;5.290;2023-03-01T09:21:08;61.73;;;35.63;;
24325;SDS011;12448;45.532;5.290;2023-03-01T09:23:38;60.23;;;32.17;;
24325;SDS011;12448;45.532;5.290;2023-03-01T09:26:06;58.07;;;33.73;;
24325;SDS011;12448;45.532;5.290;2023-03-01T09:28:33;112.17;;;65.10;;
24325;SDS011;12448;45.532;5.290;2023-03-01T09:31:00;74.23;;;37.07;;
24325;SDS011;12448;45.532;5.290;2023-03-01T09:33:27;78.50;;;41.07;;
24325;SDS011;12448;45.532;5.290;2023-03-01T09:35:58;81.10;;;40.40;;
24325;SDS011;12448;45.532;5.290;2023-03-01T09:38:24;61.77;;;34.53;;
24325;SDS011;12448;45.532;5.290;2023-03-01T09:40:50;77.17;;;43.87;;
24325;SDS011;12448;45.532;5.290;2023-03-01T09:43:31;75.73;;;42.83;;
24325;SDS011;12448;45.532;5.290;2023-03-01T09:46:10;133.30;;;56.83;;
24325;SDS011;12448;45.532;5.290;2023-03-01T09:48:43;71.47;;;38.27;;
24325;SDS011;12448;45.532;5.290;2023-03-01T09:51:35;62.60;;;40.33;;
24325;SDS011;12448;45.532;5.290;2023-03-01T09:54:01;80.13;;;37.57;;
24325;SDS011;12448;45.532;5.290;2023-03-01T10:04:47;98.00;;;40.23;;
24325;SDS011;12448;45.532;5.290;2023-03-01T10:07:51;95.10;;;42.27;;
24325;SDS011;12448;45.532;5.290;2023-03-01T10:10:28;116.05;;;45.08;;
24325;SDS011;12448;45.532;5.290;2023-03-01T10:13:00;54.43;;;32.30;;
24325;SDS011;12448;45.532;5.290;2023-03-01T10:15:44;63.23;;;34.37;;
24325;SDS011;12448;45.532;5.290;2023-03-01T10:18:22;61.07;;;35.60;;
24325;SDS011;12448;45.532;5.290;2023-03-01T10:20:54;86.13;;;38.00;;
24325;SDS011;12448;45.532;5.290;2023-03-01T10:23:22;87.03;;;39.00;;
24325;SDS011;12448;45.532;5.290;2023-03-01T10:31:20;119.53;;;50.10;;
24325;SDS011;12448;45.532;5.290;2023-03-01T10:33:52;82.30;;;40.17;;
24325;SDS011;12448;45.532;5.290;2023-03-01T10:36:20;56.37;;;31.37;;
24325;SDS011;12448;45.532;5.290;2023-03-01T10:38:53;62.40;;;32.97;;
24325;SDS011;12448;45.532;5.290;2023-03-01T10:41:23;62.20;;;34.78;;
24325;SDS011;12448;45.532;5.290;2023-03-01T10:43:52;84.70;;;44.13;;
24325;SDS011;12448;45.532;5.290;2023-03-01T10:46:23;58.97;;;31.93;;
24325;SDS011;12448;45.532;5.290;2023-03-01T10:49:05;53.80;;;31.30;;
24325;SDS011;12448;45.532;5.290;2023-03-01T10:51:37;52.30;;;29.30;;
24325;SDS011;12448;45.532;5.290;2023-03-01T10:56:59;60.50;;;31.07;;
24325;SDS011;12448;45.532;5.290;2023-03-01T11:05:13;76.10;;;41.37;;
24325;SDS011;12448;45.532;5.290;2023-03-01T11:07:53;52.57;;;31.37;;
24325;SDS011;12448;45.532;5.290;2023-03-01T11:10:28;50.05;;;29.10;;
24325;SDS011;12448;45.532;5.290;2023-03-01T11:13:14;60.53;;;33.60;;
24325;SDS011;12448;45.532;5.290;2023-03-01T11:16:00;61.97;;;35.47;;
24325;SDS011;12448;45.532;5.290;2023-03-01T11:18:29;53.60;;;33.77;;
24325;SDS011;12448;45.532;5.290;2023-03-01T11:20:56;57.27;;;34.27;;
24325;SDS011;12448;45.532;5.290;2023-03-01T11:23:23;122.40;;;63.33;;
24325;SDS011;12448;45.532;5.290;2023-03-01T11:25:58;93.40;;;44.73;;
24325;SDS011;12448;45.532;5.290;2023-03-01T11:28:27;65.80;;;38.83;;
24325;SDS011;12448;45.532;5.290;2023-03-01T11:36:16;83.10;;;42.43;;
24325;SDS011;12448;45.532;5.290;2023-03-01T11:39:12;138.95;;;69.43;;
24325;SDS011;12448;45.532;5.290;2023-03-01T11:41:47;65.35;;;39.25;;
24325;SDS011;12448;45.532;5.290;2023-03-01T11:44:22;57.90;;;31.43;;
24325;SDS011;12448;45.532;5.290;2023-03-01T11:54:38;55.27;;;32.00;;
24325;SDS011;12448;45.532;5.290;2023-03-01T12:22:31;90.33;;;44.80;;
24325;SDS011;12448;45.532;5.290;2023-03-01T12:38:48;57.03;;;33.40;;
24325;SDS011;12448;45.532;5.290;2023-03-01T12:41:21;66.23;;;36.10;;
24325;SDS011;12448;45.532;5.290;2023-03-01T12:44:08;213.03;;;84.77;;
24325;SDS011;12448;45.532;5.290;2023-03-01T12:49:47;328.30;;;130.63;;
24325;SDS011;12448;45.532;5.290;2023-03-01T12:52:26;94.63;;;47.80;;
24325;SDS011;12448;45.532;5.290;2023-03-01T12:57:56;170.88;;;71.78;;
24325;SDS011;12448;45.532;5.290;2023-03-01T13:11:22;131.83;;;84.13;;
24325;SDS011;12448;45.532;5.290;2023-03-01T13:13:49;58.80;;;34.43;;
24325;SDS011;12448;45.532;5.290;2023-03-01T13:19:36;100.13;;;56.57;;
24325;SDS011;12448;45.532;5.290;2023-03-01T13:21:46;70.03;;;42.40;;
24325;SDS011;12448;45.532;5.290;2023-03-01T13:24:24;59.70;;;34.30;;
24325;SDS011;12448;45.532;5.290;2023-03-01T13:29:51;82.73;;;47.97;;
24325;SDS011;12448;45.532;5.290;2023-03-01T13:34:49;82.23;;;38.60;;
24325;SDS011;12448;45.532;5.290;2023-03-01T13:37:20;74.43;;;42.00;;
24325;SDS011;12448;45.532;5.290;2023-03-01T13:39:51;63.73;;;35.80;;
24325;SDS011;12448;45.532;5.290;2023-03-01T13:47:54;92.10;;;44.13;;
24325;SDS011;12448;45.532;5.290;2023-03-01T13:50:25;71.43;;;36.97;;
24325;SDS011;12448;45.532;5.290;2023-03-01T13:53:00;105.80;;;44.53;;
24325;SDS011;12448;45.532;5.290;2023-03-01T13:58:01;55.43;;;31.77;;
24325;SDS011;12448;45.532;5.290;2023-03-01T14:00:38;56.37;;;31.23;;
24325;SDS011;12448;45.532;5.290;2023-03-01T14:05:35;61.67;;;33.40;;
24325;SDS011;12448;45.532;5.290;2023-03-01T14:08:05;54.90;;;32.63;;
24325;SDS011;12448;45.532;5.290;2023-03-01T14:21:22;56.00;;;32.97;;
24325;SDS011;12448;45.532;5.290;2023-03-01T14:23:50;58.73;;;33.63;;
24325;SDS011;12448;45.532;5.290;2023-03-01T14:26:20;60.17;;;32.63;;
24325;SDS011;12448;45.532;5.290;2023-03-01T14:28:47;54.63;;;33.33;;
24325;SDS011;12448;45.532;5.290;2023-03-01T14:33:58;64.97;;;34.03;;
24325;SDS011;12448;45.532;5.290;2023-03-01T14:36:28;57.13;;;33.03;;
24325;SDS011;12448;45.532;5.290;2023-03-01T14:38:55;60.87;;;31.70;;
24325;SDS011;12448;45.532;5.290;2023-03-01T14:41:26;55.30;;;31.17;;
24325;SDS011;12448;45.532;5.290;2023-03-01T14:43:55;62.63;;;34.47;;
24325;SDS011;12448;45.532;5.290;2023-03-01T14:51:45;55.00;;;33.72;;
24325;SDS011;12448;45.532;5.290;2023-03-01T14:54:20;51.77;;;29.83;;
24325;SDS011;12448;45.532;5.290;2023-03-01T14:56:49;59.67;;;35.07;;
24325;SDS011;12448;45.532;5.290;2023-03-01T14:59:23;57.80;;;33.80;;
24325;SDS011;12448;45.532;5.290;2023-03-01T15:01:50;52.28;;;32.55;;
24325;SDS011;12448;45.532;5.290;2023-03-01T15:04:18;55.13;;;32.90;;
24325;SDS011;12448;45.532;5.290;2023-03-01T15:06:46;67.47;;;38.17;;
24325;SDS011;12448;45.532;5.290;2023-03-01T15:09:15;59.57;;;33.50;;
24325;SDS011;12448;45.532;5.290;2023-03-01T15:11:43;64.37;;;34.27;;
24325;SDS011;12448;45.532;5.290;2023-03-01T15:14:25;61.07;;;32.50;;
24325;SDS011;12448;45.532;5.290;2023-03-01T15:19:18;55.50;;;31.43;;
24325;SDS011;12448;45.532;5.290;2023-03-01T15:21:46;56.87;;;32.17;;
24325;SDS011;12448;45.532;5.290;2023-03-01T15:24:20;79.10;;;45.77;;
24325;SDS011;12448;45.532;5.290;2023-03-01T15:29:20;61.33;;;34.23;;
24325;SDS011;12448;45.532;5.290;2023-03-01T15:31:58;56.13;;;32.07;;
24325;SDS011;12448;45.532;5.290;2023-03-01T15:34:32;54.30;;;31.70;;
24325;SDS011;12448;45.532;5.290;2023-03-01T15:37:02;57.13;;;32.33;;
24325;SDS011;12448;45.532;5.290;2023-03-01T15:41:56;57.37;;;32.33;;
24325;SDS011;12448;45.532;5.290;2023-03-01T15:44:29;55.17;;;33.53;;
24325;SDS011;12448;45.532;5.290;2023-03-01T15:46:59;59.17;;;32.80;;
24325;SDS011;12448;45.532;5.290;2023-03-01T15:49:35;53.10;;;33.08;;
24325;SDS011;12448;45.532;5.290;2023-03-01T15:52:27;54.07;;;31.53;;
24325;SDS011;12448;45.532;5.290;2023-03-01T15:55:00;55.47;;;32.70;;
24325;SDS011;12448;45.532;5.290;2023-03-01T15:57:28;55.57;;;32.47;;
24325;SDS011;12448;45.532;5.290;2023-03-01T15:59:54;54.07;;;31.53;;
24325;SDS011;12448;45.532;5.290;2023-03-01T16:02:21;60.73;;;33.47;;
24325;SDS011;12448;45.532;5.290;2023-03-01T16:04:50;62.17;;;34.93;;
24325;SDS011;12448;45.532;5.290;2023-03-01T16:07:16;59.20;;;34.10;;
24325;SDS011;12448;45.532;5.290;2023-03-01T16:09:41;61.17;;;34.93;;
24325;SDS011;12448;45.532;5.290;2023-03-01T16:12:11;59.23;;;33.87;;
24325;SDS011;12448;45.532;5.290;2023-03-01T16:14:39;57.03;;;33.67;;
24325;SDS011;12448;45.532;5.290;2023-03-01T16:17:05;55.97;;;32.77;;
24325;SDS011;12448;45.532;5.290;2023-03-01T16:19:30;60.37;;;34.50;;
24325;SDS011;12448;45.532;5.290;2023-03-01T16:21:56;60.27;;;32.80;;
24325;SDS011;12448;45.532;5.290;2023-03-01T16:24:22;57.30;;;35.07;;
24325;SDS011;12448;45.532;5.290;2023-03-01T16:26:48;61.83;;;35.17;;
24325;SDS011;12448;45.532;5.290;2023-03-01T16:29:13;62.30;;;37.03;;
24325;SDS011;12448;45.532;5.290;2023-03-01T16:31:40;92.10;;;46.10;;
24325;SDS011;12448;45.532;5.290;2023-03-01T16:34:06;112.73;;;52.10;;
24325;SDS011;12448;45.532;5.290;2023-03-01T16:36:31;235.53;;;89.97;;
24325;SDS011;12448;45.532;5.290;2023-03-01T16:38:58;66.90;;;31.60;;
24325;SDS011;12448;45.532;5.290;2023-03-01T16:41:25;231.27;;;93.73;;
24325;SDS011;12448;45.532;5.290;2023-03-01T16:43:52;85.13;;;45.80;;
24325;SDS011;12448;45.532;5.290;2023-03-01T16:46:19;61.27;;;35.97;;
24325;SDS011;12448;45.532;5.290;2023-03-01T16:48:50;79.23;;;41.93;;
24325;SDS011;12448;45.532;5.290;2023-03-01T16:51:16;102.90;;;52.40;;
24325;SDS011;12448;45.532;5.290;2023-03-01T16:53:42;88.70;;;47.33;;
24325;SDS011;12448;45.532;5.290;2023-03-01T16:56:09;114.63;;;57.27;;
24325;SDS011;12448;45.532;5.290;2023-03-01T16:58:36;175.13;;;81.97;;
24325;SDS011;12448;45.532;5.290;2023-03-01T17:01:07;133.83;;;65.97;;
24325;SDS011;12448;45.532;5.290;2023-03-01T17:03:37;234.83;;;102.10;;
24325;SDS011;12448;45.532;5.290;2023-03-01T17:06:05;451.70;;;197.73;;